Time;durP1;ratioP1;P1;durP2;ratioP2;P2;SDS_P1;SDS_P2;PMS_P1;PMS_P2;Temp;Humidity;BMP_temperature;BMP_pressure;BME280_temperature;BME280_humidity;BME280_pressure;Samples;Min_cycle;Max_cycle;Signal;HPM_P1;HPM_P2
2021/03/04 00:01:18;;;;;;;25.08;12.88;;;;;;;;;;5092603;28;20035;-15
2021/03/04 00:03:43;;;;;;;25.05;11.85;;;;;;;;;;5092359;28;20024;-15
2021/03/04 00:06:09;;;;;;;24.80;11.95;;;;;;;;;;5080448;28;20108;-15
2021/03/04 00:08:34;;;;;;;26.13;12.48;;;;;;;;;;5072272;28;20024;-13
2021/03/04 00:10:59;;;;;;;26.98;12.25;;;;;;;;;;5072302;28;20032;-15
2021/03/04 00:13:25;;;;;;;25.33;11.38;;;;;;;;;;5072322;28;20055;-14
2021/03/04 00:15:53;;;;;;;19.08;11.48;;;;;;;;;;5072175;28;20047;-15
2021/03/04 00:18:19;;;;;;;31.38;12.15;;;;;;;;;;5072113;28;20054;-13
2021/03/04 00:20:44;;;;;;;24.52;12.52;;;;;;;;;;5072365;28;20024;-14
2021/03/04 00:23:09;;;;;;;26.65;11.95;;;;;;;;;;5071871;28;20044;-14
2021/03/04 00:25:35;;;;;;;22.00;12.30;;;;;;;;;;5072214;28;20035;-15
2021/03/04 00:28:01;;;;;;;24.27;10.85;;;;;;;;;;5072075;28;20024;-14
2021/03/04 00:30:26;;;;;;;20.38;10.43;;;;;;;;;;5071405;28;20025;-14
2021/03/04 00:32:52;;;;;;;22.42;10.13;;;;;;;;;;5071974;28;20025;-15
2021/03/04 00:35:18;;;;;;;19.67;9.27;;;;;;;;;;5071999;28;20031;-14
2021/03/04 00:37:43;;;;;;;21.38;11.13;;;;;;;;;;5071990;28;20025;-14
2021/03/04 00:40:13;;;;;;;23.02;10.55;;;;;;;;;;5071813;28;20044;-14
2021/03/04 00:42:38;;;;;;;22.58;10.25;;;;;;;;;;5070633;28;20475;-14
2021/03/04 00:45:24;;;;;;;23.70;8.77;;;;;;;;;;5071792;28;20032;-14
2021/03/04 00:47:50;;;;;;;28.60;11.25;;;;;;;;;;5071694;28;20036;-14
2021/03/04 00:50:16;;;;;;;22.63;10.57;;;;;;;;;;5071758;28;20078;-17
2021/03/04 00:52:42;;;;;;;22.83;10.68;;;;;;;;;;5071783;28;20035;-14
2021/03/04 00:55:07;;;;;;;19.40;9.70;;;;;;;;;;5071780;28;20025;-15
2021/03/04 00:57:33;;;;;;;16.50;8.88;;;;;;;;;;5071725;28;20025;-15
2021/03/04 00:59:58;;;;;;;17.45;8.45;;;;;;;;;;5071752;28;20020;-14
2021/03/04 01:02:24;;;;;;;21.92;9.98;;;;;;;;;;5071599;28;20029;-15
2021/03/04 01:04:49;;;;;;;20.63;9.70;;;;;;;;;;5071976;28;20021;-15
2021/03/04 01:07:15;;;;;;;18.45;8.82;;;;;;;;;;5071641;28;20031;-15
2021/03/04 01:09:40;;;;;;;17.90;8.23;;;;;;;;;;5071526;28;20031;-15
2021/03/04 01:12:06;;;;;;;16.50;8.40;;;;;;;;;;5071667;28;20028;-14
2021/03/04 01:14:31;;;;;;;17.60;9.02;;;;;;;;;;5071552;28;20077;-15
2021/03/04 01:16:58;;;;;;;17.75;9.02;;;;;;;;;;5071829;28;20078;-15
2021/03/04 01:19:23;;;;;;;17.33;8.90;;;;;;;;;;5071606;28;20028;-15
2021/03/04 01:21:48;;;;;;;15.18;8.20;;;;;;;;;;5071411;28;20052;-15
2021/03/04 01:24:14;;;;;;;19.25;9.27;;;;;;;;;;5071712;28;20094;-15
2021/03/04 01:26:39;;;;;;;20.88;10.05;;;;;;;;;;5071883;28;20024;-15
2021/03/04 01:29:04;;;;;;;19.55;9.15;;;;;;;;;;5071390;28;20024;-15
2021/03/04 01:31:30;;;;;;;15.75;8.90;;;;;;;;;;5071720;28;20115;-15
2021/03/04 01:33:55;;;;;;;17.48;8.15;;;;;;;;;;5071684;28;20130;-14
2021/03/04 01:36:21;;;;;;;17.75;8.45;;;;;;;;;;5071659;28;20352;-15
2021/03/04 01:38:46;;;;;;;17.02;8.90;;;;;;;;;;5071721;28;20044;-15
2021/03/04 01:41:12;;;;;;;16.08;9.38;;;;;;;;;;5072375;28;20537;-15
2021/03/04 01:43:37;;;;;;;21.15;9.00;;;;;;;;;;5075061;28;20387;-15
2021/03/04 01:46:02;;;;;;;18.70;9.85;;;;;;;;;;5075071;28;20085;-14
2021/03/04 01:48:28;;;;;;;19.27;10.13;;;;;;;;;;5074888;28;20016;-14
2021/03/04 01:50:54;;;;;;;18.63;9.27;;;;;;;;;;5074970;28;20035;-14
2021/03/04 01:53:19;;;;;;;17.30;9.23;;;;;;;;;;5075076;28;20036;-14
2021/03/04 01:55:45;;;;;;;19.73;9.20;;;;;;;;;;5074888;28;20028;-14
2021/03/04 01:58:10;;;;;;;21.50;10.13;;;;;;;;;;5075043;28;20111;-14
2021/03/04 02:00:35;;;;;;;16.95;9.18;;;;;;;;;;5073388;28;20029;-15
2021/03/04 02:03:01;;;;;;;17.23;9.75;;;;;;;;;;5074681;28;20043;-14
2021/03/04 02:05:26;;;;;;;20.40;9.60;;;;;;;;;;5073281;28;20075;-13
2021/03/04 02:08:02;;;;;;;18.23;8.90;;;;;;;;;;5074669;28;20055;-14
2021/03/04 02:10:35;;;;;;;18.40;9.60;;;;;;;;;;5074513;28;20031;-15
2021/03/04 02:13:00;;;;;;;20.55;9.23;;;;;;;;;;5074486;28;20075;-15
2021/03/04 02:15:28;;;;;;;18.75;9.77;;;;;;;;;;5074654;28;20052;-13
2021/03/04 02:17:55;;;;;;;18.95;9.43;;;;;;;;;;5074307;28;20107;-14
2021/03/04 02:20:33;;;;;;;16.95;9.25;;;;;;;;;;5073132;28;20049;-13
2021/03/04 02:23:13;;;;;;;20.33;9.05;;;;;;;;;;5074112;28;20493;-15
2021/03/04 02:25:55;;;;;;;19.63;10.45;;;;;;;;;;5074311;28;20047;-16
2021/03/04 02:28:22;;;;;;;18.60;9.23;;;;;;;;;;5074576;28;20037;-15
2021/03/04 02:30:48;;;;;;;23.38;10.38;;;;;;;;;;5074279;28;20044;-14
2021/03/04 02:33:15;;;;;;;16.20;8.35;;;;;;;;;;5073962;28;20482;-15
2021/03/04 02:35:42;;;;;;;19.38;9.27;;;;;;;;;;5074265;28;20017;-14
2021/03/04 02:38:10;;;;;;;19.92;9.13;;;;;;;;;;5074043;28;20032;-14
2021/03/04 02:40:36;;;;;;;19.65;8.38;;;;;;;;;;5073956;28;20024;-15
2021/03/04 02:43:04;;;;;;;18.48;9.13;;;;;;;;;;5073926;28;20406;-15
2021/03/04 02:45:29;;;;;;;18.23;9.73;;;;;;;;;;5073742;28;20020;-14
2021/03/04 02:47:55;;;;;;;19.55;9.88;;;;;;;;;;5073950;28;20032;-14
2021/03/04 02:50:22;;;;;;;21.42;8.27;;;;;;;;;;5074055;28;20020;-15
2021/03/04 02:52:48;;;;;;;17.77;8.00;;;;;;;;;;5072622;28;20399;-15
2021/03/04 02:55:13;;;;;;;18.20;8.75;;;;;;;;;;5073701;28;20020;-15
2021/03/04 02:57:41;;;;;;;17.55;8.50;;;;;;;;;;5071958;28;20036;-15
2021/03/04 03:00:09;;;;;;;15.38;8.05;;;;;;;;;;5074000;28;20024;-15
2021/03/04 03:02:36;;;;;;;16.05;7.60;;;;;;;;;;5073724;28;20039;-15
2021/03/04 03:05:02;;;;;;;18.33;8.13;;;;;;;;;;5073774;28;20025;-15
2021/03/04 03:07:27;;;;;;;15.20;8.18;;;;;;;;;;5073429;28;20082;-14
2021/03/04 03:09:52;;;;;;;17.15;8.20;;;;;;;;;;5073379;28;20475;-15
2021/03/04 03:12:18;;;;;;;15.57;7.55;;;;;;;;;;5073334;28;20043;-15
2021/03/04 03:14:44;;;;;;;16.90;7.60;;;;;;;;;;5073599;28;20059;-15
2021/03/04 03:17:09;;;;;;;15.75;8.30;;;;;;;;;;5073724;28;20482;-14
2021/03/04 03:19:35;;;;;;;18.17;7.55;;;;;;;;;;5073302;28;20017;-14
2021/03/04 03:22:01;;;;;;;14.93;8.27;;;;;;;;;;5072366;28;20044;-15
2021/03/04 03:24:26;;;;;;;15.43;8.15;;;;;;;;;;5072478;28;20041;-16
2021/03/04 03:26:53;;;;;;;16.48;8.35;;;;;;;;;;5073073;28;20025;-14
2021/03/04 03:29:18;;;;;;;14.07;7.78;;;;;;;;;;5073048;28;20035;-15
2021/03/04 03:31:47;;;;;;;13.60;7.53;;;;;;;;;;5055114;28;20478;-15
2021/03/04 03:34:12;;;;;;;13.93;6.75;;;;;;;;;;5073069;28;20035;-15
2021/03/04 03:36:38;;;;;;;14.68;7.22;;;;;;;;;;5072994;28;20387;-16
2021/03/04 03:39:05;;;;;;;14.35;7.05;;;;;;;;;;5071813;28;20028;-15
2021/03/04 03:41:31;;;;;;;19.42;7.88;;;;;;;;;;5072751;28;20511;-16
2021/03/04 03:43:57;;;;;;;15.25;7.82;;;;;;;;;;5072785;28;20380;-15
2021/03/04 03:46:23;;;;;;;16.30;7.38;;;;;;;;;;5072548;28;20032;-15
2021/03/04 03:48:49;;;;;;;15.85;7.90;;;;;;;;;;5073020;28;20016;-15
2021/03/04 03:51:15;;;;;;;13.50;7.35;;;;;;;;;;5072792;28;20102;-15
2021/03/04 03:53:41;;;;;;;13.68;7.28;;;;;;;;;;5072602;28;20013;-16
2021/03/04 03:56:07;;;;;;;15.80;7.85;;;;;;;;;;5072863;28;20363;-16
2021/03/04 03:58:35;;;;;;;12.63;6.90;;;;;;;;;;5072418;28;20020;-15
2021/03/04 04:01:01;;;;;;;15.30;8.00;;;;;;;;;;5072457;28;20041;-15
2021/03/04 04:03:26;;;;;;;16.42;7.25;;;;;;;;;;5071077;28;20076;-16
2021/03/04 04:05:52;;;;;;;15.57;7.28;;;;;;;;;;5071557;28;20024;-16
2021/03/04 04:08:18;;;;;;;16.08;7.55;;;;;;;;;;5071334;28;20021;-16
2021/03/04 04:10:44;;;;;;;16.65;7.85;;;;;;;;;;5072526;28;20081;-16
2021/03/04 04:13:10;;;;;;;11.93;6.85;;;;;;;;;;5072297;28;20017;-16
2021/03/04 04:15:35;;;;;;;14.13;7.90;;;;;;;;;;5072271;28;20050;-15
2021/03/04 04:18:01;;;;;;;13.05;7.25;;;;;;;;;;5072498;28;20025;-15
2021/03/04 04:20:27;;;;;;;16.60;7.38;;;;;;;;;;5054274;28;20032;-16
2021/03/04 04:22:53;;;;;;;14.60;6.80;;;;;;;;;;5071853;28;20044;-16
2021/03/04 04:25:22;;;;;;;13.02;7.38;;;;;;;;;;5070826;28;20028;-15
2021/03/04 04:27:55;;;;;;;16.75;7.60;;;;;;;;;;5072161;28;20021;-15
2021/03/04 04:30:21;;;;;;;14.20;7.33;;;;;;;;;;5072024;28;20115;-16
2021/03/04 04:32:46;;;;;;;15.45;7.47;;;;;;;;;;5070828;28;20263;-16
2021/03/04 04:35:12;;;;;;;14.15;7.63;;;;;;;;;;5071876;28;20119;-15
2021/03/04 04:37:38;;;;;;;12.88;6.38;;;;;;;;;;5070825;28;20016;-15
2021/03/04 04:40:04;;;;;;;17.58;7.95;;;;;;;;;;5072275;28;20352;-15
2021/03/04 04:42:29;;;;;;;13.20;6.88;;;;;;;;;;5071741;28;20024;-16
2021/03/04 04:44:55;;;;;;;15.52;7.93;;;;;;;;;;5071993;28;20032;-16
2021/03/04 04:47:20;;;;;;;17.00;8.20;;;;;;;;;;5071767;28;20582;-16
2021/03/04 04:49:46;;;;;;;13.88;8.32;;;;;;;;;;5072206;28;20032;-16
2021/03/04 04:52:11;;;;;;;15.35;7.93;;;;;;;;;;5072027;28;20024;-17
2021/03/04 04:54:36;;;;;;;19.20;8.88;;;;;;;;;;5072138;28;20045;-15
2021/03/04 04:57:02;;;;;;;15.45;7.72;;;;;;;;;;5072072;28;20494;-16
2021/03/04 04:59:27;;;;;;;15.88;8.90;;;;;;;;;;5071712;28;20832;-14
2021/03/04 05:01:52;;;;;;;16.98;8.15;;;;;;;;;;5071749;28;20024;-15
2021/03/04 05:04:18;;;;;;;14.38;8.50;;;;;;;;;;5071856;28;20044;-14
2021/03/04 05:06:43;;;;;;;14.20;8.05;;;;;;;;;;5071984;28;20499;-16
2021/03/04 05:09:08;;;;;;;15.07;7.50;;;;;;;;;;5071664;28;20471;-15
2021/03/04 05:11:34;;;;;;;13.55;7.65;;;;;;;;;;5071518;28;20096;-17
2021/03/04 05:13:59;;;;;;;13.50;7.18;;;;;;;;;;5070496;28;20063;-15
2021/03/04 05:16:25;;;;;;;16.27;8.18;;;;;;;;;;5072946;28;20077;-15
2021/03/04 05:18:50;;;;;;;19.10;8.05;;;;;;;;;;5075793;28;20032;-16
2021/03/04 05:21:16;;;;;;;14.35;7.55;;;;;;;;;;5075488;28;20052;-15
2021/03/04 05:23:41;;;;;;;20.33;8.57;;;;;;;;;;5074209;28;20522;-16
2021/03/04 05:26:06;;;;;;;17.25;7.25;;;;;;;;;;5075419;28;20088;-16
2021/03/04 05:28:32;;;;;;;20.83;8.57;;;;;;;;;;5075576;28;20032;-15
2021/03/04 05:30:57;;;;;;;18.42;7.63;;;;;;;;;;5075350;28;20379;-15
2021/03/04 05:33:22;;;;;;;16.17;8.23;;;;;;;;;;5075180;28;20447;-16
2021/03/04 05:35:48;;;;;;;17.60;8.35;;;;;;;;;;5075159;28;20021;-16
2021/03/04 05:38:13;;;;;;;17.20;8.70;;;;;;;;;;5075111;28;20024;-16
2021/03/04 05:40:39;;;;;;;16.92;8.13;;;;;;;;;;5075408;28;20409;-15
2021/03/04 05:43:04;;;;;;;19.27;8.65;;;;;;;;;;5057103;28;20563;-16
2021/03/04 05:45:30;;;;;;;17.50;8.82;;;;;;;;;;5075075;28;20024;-15
2021/03/04 05:47:56;;;;;;;14.68;8.48;;;;;;;;;;5074965;28;20021;-15
2021/03/04 05:50:22;;;;;;;14.73;8.15;;;;;;;;;;5074907;28;20020;-14
2021/03/04 05:52:54;;;;;;;14.60;9.00;;;;;;;;;;5075004;28;20029;-14
2021/03/04 05:55:19;;;;;;;18.95;8.43;;;;;;;;;;5074124;28;20089;-15
2021/03/04 05:57:45;;;;;;;17.50;9.18;;;;;;;;;;5074917;28;20025;-15
2021/03/04 06:00:11;;;;;;;14.52;8.13;;;;;;;;;;5073837;28;20086;-16
2021/03/04 06:02:36;;;;;;;15.80;8.43;;;;;;;;;;5074687;28;20037;-16
2021/03/04 06:05:02;;;;;;;13.77;7.45;;;;;;;;;;5074873;28;20504;-15
2021/03/04 06:07:28;;;;;;;19.08;8.73;;;;;;;;;;5074707;28;20009;-16
2021/03/04 06:09:53;;;;;;;15.65;8.77;;;;;;;;;;5073408;28;20028;-16
2021/03/04 06:12:19;;;;;;;15.90;8.25;;;;;;;;;;5074727;28;20054;-16
2021/03/04 06:14:44;;;;;;;17.73;8.50;;;;;;;;;;5074506;28;20486;-15
2021/03/04 06:17:10;;;;;;;14.80;8.07;;;;;;;;;;5074427;28;20016;-15
2021/03/04 06:19:35;;;;;;;15.98;7.70;;;;;;;;;;5074520;28;20459;-14
2021/03/04 06:22:01;;;;;;;16.50;7.80;;;;;;;;;;5074349;28;20135;-16
2021/03/04 06:24:26;;;;;;;15.00;7.45;;;;;;;;;;5074491;28;20037;-16
2021/03/04 06:26:52;;;;;;;14.35;8.20;;;;;;;;;;5074359;28;20360;-15
2021/03/04 06:29:19;;;;;;;15.02;7.75;;;;;;;;;;5073504;28;20036;-15
2021/03/04 06:31:45;;;;;;;14.05;7.95;;;;;;;;;;5074547;28;20020;-15
2021/03/04 06:34:15;;;;;;;15.90;7.60;;;;;;;;;;5074100;28;20028;-16
2021/03/04 06:36:50;;;;;;;15.85;7.68;;;;;;;;;;5074454;28;20384;-15
2021/03/04 06:39:15;;;;;;;15.05;8.15;;;;;;;;;;5074021;28;20028;-15
2021/03/04 06:41:41;;;;;;;18.55;8.88;;;;;;;;;;5074346;28;20024;-15
2021/03/04 06:44:06;;;;;;;17.23;8.57;;;;;;;;;;5074143;28;20383;-15
2021/03/04 06:46:42;;;;;;;17.85;8.07;;;;;;;;;;5073910;28;20460;-15
2021/03/04 06:49:07;;;;;;;20.25;9.25;;;;;;;;;;5073958;28;20040;-16
2021/03/04 06:51:41;;;;;;;13.23;6.93;;;;;;;;;;5073735;28;20025;-16
2021/03/04 06:54:06;;;;;;;15.30;7.93;;;;;;;;;;5073882;28;20043;-14
2021/03/04 06:56:32;;;;;;;14.13;7.28;;;;;;;;;;5073727;28;20024;-14
2021/03/04 06:58:58;;;;;;;17.45;8.32;;;;;;;;;;5073692;28;20490;-13
2021/03/04 07:01:25;;;;;;;14.88;7.97;;;;;;;;;;5073765;28;20075;-14
2021/03/04 07:03:51;;;;;;;18.05;8.25;;;;;;;;;;5073765;28;20040;-13
2021/03/04 07:06:18;;;;;;;36.95;15.18;;;;;;;;;;5073550;28;20043;-14
2021/03/04 07:08:45;;;;;;;47.70;16.83;;;;;;;;;;5073522;28;20030;-13
2021/03/04 07:11:11;;;;;;;57.55;19.50;;;;;;;;;;5073431;28;20173;-14
2021/03/04 07:13:37;;;;;;;37.63;14.27;;;;;;;;;;5073691;28;20097;-15
2021/03/04 07:16:07;;;;;;;32.50;13.82;;;;;;;;;;5073661;28;20025;-13
2021/03/04 07:18:37;;;;;;;32.55;13.32;;;;;;;;;;5073570;28;20043;-14
2021/03/04 07:21:02;;;;;;;28.73;12.68;;;;;;;;;;5073017;28;20108;-15
2021/03/04 07:23:28;;;;;;;28.40;10.65;;;;;;;;;;5073187;28;20154;-15
2021/03/04 07:25:54;;;;;;;17.20;9.70;;;;;;;;;;5073124;28;20012;-14
2021/03/04 07:28:20;;;;;;;16.83;9.77;;;;;;;;;;5072984;28;20502;-14
2021/03/04 07:30:46;;;;;;;20.02;9.95;;;;;;;;;;5073173;28;20009;-14
2021/03/04 07:33:11;;;;;;;17.23;10.00;;;;;;;;;;5073127;28;20033;-13
2021/03/04 07:35:37;;;;;;;19.83;10.13;;;;;;;;;;5073069;28;20023;-12
2021/03/04 07:38:02;;;;;;;20.83;9.88;;;;;;;;;;5072936;28;20073;-13
2021/03/04 07:40:28;;;;;;;21.45;10.15;;;;;;;;;;5072617;28;20063;-14
2021/03/04 07:43:03;;;;;;;20.70;10.63;;;;;;;;;;5073079;28;20037;-14
2021/03/04 07:45:28;;;;;;;22.13;11.10;;;;;;;;;;5072690;28;20514;-14
2021/03/04 07:47:54;;;;;;;26.95;10.98;;;;;;;;;;5072754;28;20017;-14
2021/03/04 07:50:20;;;;;;;21.67;10.48;;;;;;;;;;5072791;28;20033;-13
2021/03/04 07:52:46;;;;;;;19.50;10.23;;;;;;;;;;5072742;28;20058;-13
2021/03/04 07:55:13;;;;;;;17.98;10.35;;;;;;;;;;5072590;28;20485;-13
2021/03/04 07:57:42;;;;;;;16.23;9.43;;;;;;;;;;5072515;28;20112;-12
2021/03/04 08:00:07;;;;;;;16.23;9.52;;;;;;;;;;5072481;28;20115;-13
2021/03/04 08:02:39;;;;;;;20.35;9.73;;;;;;;;;;5072341;28;20012;-12
2021/03/04 08:05:07;;;;;;;19.73;10.52;;;;;;;;;;5072756;28;20033;-13
2021/03/04 08:07:33;;;;;;;20.70;9.80;;;;;;;;;;5071763;28;20107;-14
2021/03/04 08:10:05;;;;;;;18.85;10.32;;;;;;;;;;5071915;28;20104;-13
2021/03/04 08:12:31;;;;;;;16.95;9.50;;;;;;;;;;5072201;28;20036;-13
2021/03/04 08:14:57;;;;;;;24.35;11.20;;;;;;;;;;5072315;28;20021;-15
2021/03/04 08:17:33;;;;;;;17.75;10.02;;;;;;;;;;5072235;28;20029;-13
2021/03/04 08:19:59;;;;;;;22.92;10.60;;;;;;;;;;5070857;28;20033;-13
2021/03/04 08:22:25;;;;;;;18.15;9.73;;;;;;;;;;5072064;28;20070;-13
2021/03/04 08:24:51;;;;;;;15.55;8.70;;;;;;;;;;5072305;28;20523;-14
2021/03/04 08:27:16;;;;;;;21.27;9.30;;;;;;;;;;5072375;28;20028;-15
2021/03/04 08:29:48;;;;;;;16.95;8.65;;;;;;;;;;5072529;28;20033;-14
2021/03/04 08:32:14;;;;;;;16.10;8.83;;;;;;;;;;5072000;28;20104;-15
2021/03/04 08:34:40;;;;;;;18.75;8.98;;;;;;;;;;5072200;28;20348;-14
2021/03/04 08:37:06;;;;;;;19.63;9.25;;;;;;;;;;5072007;28;20453;-14
2021/03/04 08:39:32;;;;;;;24.98;10.65;;;;;;;;;;5072174;28;20024;-13
2021/03/04 08:42:08;;;;;;;19.52;8.65;;;;;;;;;;5070690;28;20025;-11
2021/03/04 08:44:33;;;;;;;20.23;8.90;;;;;;;;;;5071871;28;20071;-14
2021/03/04 08:46:59;;;;;;;19.42;9.00;;;;;;;;;;5072009;28;20052;-14
2021/03/04 08:49:24;;;;;;;22.23;9.38;;;;;;;;;;5070366;28;20029;-13
2021/03/04 08:51:50;;;;;;;22.85;9.02;;;;;;;;;;5076290;28;20016;-13
2021/03/04 08:54:25;;;;;;;22.83;9.32;;;;;;;;;;5078487;28;20032;-15
2021/03/04 08:57:05;;;;;;;17.40;7.40;;;;;;;;;;5078871;28;20024;-14
2021/03/04 08:59:31;;;;;;;19.05;8.82;;;;;;;;;;5078622;28;20028;-14
2021/03/04 09:01:58;;;;;;;16.67;8.30;;;;;;;;;;5078433;28;20096;-14
2021/03/04 09:04:25;;;;;;;16.50;8.32;;;;;;;;;;5077642;28;20045;-15
2021/03/04 09:06:51;;;;;;;16.48;7.75;;;;;;;;;;5078776;28;20055;-14
2021/03/04 09:09:23;;;;;;;17.38;7.47;;;;;;;;;;5078685;28;20037;-14
2021/03/04 09:11:49;;;;;;;14.82;5.93;;;;;;;;;;5078594;28;20024;-14
2021/03/04 09:14:15;;;;;;;16.83;8.18;;;;;;;;;;5078240;28;20021;-14
2021/03/04 09:16:41;;;;;;;17.27;7.10;;;;;;;;;;5078637;28;20043;-16
2021/03/04 09:19:07;;;;;;;13.20;7.20;;;;;;;;;;5078696;28;20024;-15
2021/03/04 09:21:32;;;;;;;15.77;7.32;;;;;;;;;;4734758;28;10000312;-15
2021/03/04 09:23:59;;;;;;;18.77;7.97;;;;;;;;;;5094808;28;20051;-13
2021/03/04 09:26:33;;;;;;;15.57;8.73;;;;;;;;;;5094921;28;20036;-17
2021/03/04 09:29:01;;;;;;;16.25;7.88;;;;;;;;;;5076604;28;20032;-17
2021/03/04 09:31:28;;;;;;;14.65;8.10;;;;;;;;;;5095673;28;20382;-16
2021/03/04 09:33:58;;;;;;;15.38;7.78;;;;;;;;;;5094989;28;20110;-17
2021/03/04 09:36:25;;;;;;;16.10;7.72;;;;;;;;;;5094071;28;20717;-15
2021/03/04 09:38:51;;;;;;;15.52;6.30;;;;;;;;;;5095172;28;20042;-15
2021/03/04 09:41:18;;;;;;;11.45;5.43;;;;;;;;;;5094813;28;20075;-15
2021/03/04 09:43:45;;;;;;;12.52;5.80;;;;;;;;;;5095008;28;20067;-15
2021/03/04 09:46:11;;;;;;;9.13;4.57;;;;;;;;;;5095111;28;20012;-16
2021/03/04 09:48:39;;;;;;;12.30;5.90;;;;;;;;;;5095012;28;20417;-14
2021/03/04 09:51:05;;;;;;;11.50;5.47;;;;;;;;;;5095234;28;20019;-15
2021/03/04 09:53:30;;;;;;;9.60;4.30;;;;;;;;;;5095065;28;20382;-15
2021/03/04 09:55:56;;;;;;;13.98;6.20;;;;;;;;;;5094730;28;20039;-15
2021/03/04 09:58:24;;;;;;;9.50;4.68;;;;;;;;;;5096165;28;20028;-14
2021/03/04 10:01:00;;;;;;;11.15;5.07;;;;;;;;;;5098202;28;20020;-15
2021/03/04 10:03:36;;;;;;;9.90;4.82;;;;;;;;;;5095518;28;20089;-14
2021/03/04 10:06:03;;;;;;;20.75;9.55;;;;;;;;;;5095350;28;20044;-14
2021/03/04 10:08:38;;;;;;;11.02;5.28;;;;;;;;;;5095342;28;20020;-16
2021/03/04 10:11:03;;;;;;;10.23;5.00;;;;;;;;;;5094841;28;20403;-15
2021/03/04 10:13:29;;;;;;;14.45;5.63;;;;;;;;;;5094739;28;20027;-14
2021/03/04 10:15:55;;;;;;;15.15;6.43;;;;;;;;;;5094792;28;20035;-15
2021/03/04 10:18:20;;;;;;;13.30;6.13;;;;;;;;;;5094723;28;20012;-14
2021/03/04 10:20:46;;;;;;;20.15;7.72;;;;;;;;;;5090592;28;20035;-14
2021/03/04 10:23:13;;;;;;;19.58;8.68;;;;;;;;;;5091694;28;20407;-16
2021/03/04 10:25:38;;;;;;;16.48;6.20;;;;;;;;;;5091416;28;20117;-16
2021/03/04 10:28:04;;;;;;;22.35;6.93;;;;;;;;;;5073010;28;20629;-15
2021/03/04 10:30:31;;;;;;;20.77;8.40;;;;;;;;;;5089884;28;20059;-16
2021/03/04 10:32:57;;;;;;;19.35;8.57;;;;;;;;;;5090694;28;20024;-20
2021/03/04 10:35:24;;;;;;;17.55;6.78;;;;;;;;;;5091058;28;20047;-15
2021/03/04 10:37:50;;;;;;;16.50;7.78;;;;;;;;;;5091093;28;20471;-15
2021/03/04 10:40:15;;;;;;;10.45;3.80;;;;;;;;;;5090701;28;20047;-15
2021/03/04 10:42:41;;;;;;;14.52;6.38;;;;;;;;;;4740080;27;10000474;-16
2021/03/04 10:45:08;;;;;;;12.05;5.22;;;;;;;;;;5090931;28;20132;-14
2021/03/04 10:47:33;;;;;;;14.95;5.78;;;;;;;;;;5089893;28;20634;-15
2021/03/04 10:49:59;;;;;;;14.13;6.25;;;;;;;;;;5090030;28;20032;-15
2021/03/04 10:52:25;;;;;;;14.02;4.85;;;;;;;;;;5089405;28;20553;-14
2021/03/04 10:54:51;;;;;;;13.77;4.50;;;;;;;;;;5089176;28;20470;-15
2021/03/04 10:57:16;;;;;;;12.80;5.68;;;;;;;;;;5089188;28;20027;-15
2021/03/04 10:59:42;;;;;;;8.57;4.15;;;;;;;;;;5090565;28;20051;-18
2021/03/04 11:02:07;;;;;;;7.60;3.15;;;;;;;;;;5090518;28;20095;-25
2021/03/04 11:04:33;;;;;;;12.23;5.40;;;;;;;;;;5090301;28;20036;-15
2021/03/04 11:06:59;;;;;;;4.22;1.95;;;;;;;;;;5090418;28;20036;-15
2021/03/04 11:09:24;;;;;;;3.70;1.95;;;;;;;;;;5090394;28;20024;-16
2021/03/04 11:11:50;;;;;;;3.80;2.35;;;;;;;;;;5088772;28;20790;-15
2021/03/04 11:14:15;;;;;;;9.02;4.63;;;;;;;;;;5089657;28;20028;-14
2021/03/04 11:16:41;;;;;;;13.80;5.68;;;;;;;;;;5090259;28;20027;-15
2021/03/04 11:19:09;;;;;;;18.30;7.32;;;;;;;;;;5089651;28;20032;-15
2021/03/04 11:21:35;;;;;;;0.90;0.63;;;;;;;;;;5089345;28;20497;-15
2021/03/04 11:24:00;;;;;;;9.70;4.07;;;;;;;;;;5089497;28;20077;-15
2021/03/04 11:26:26;;;;;;;0.50;0.40;;;;;;;;;;5090014;28;20119;-14
2021/03/04 11:28:51;;;;;;;2.03;1.35;;;;;;;;;;5088972;28;20039;-16
2021/03/04 11:31:17;;;;;;;9.77;4.55;;;;;;;;;;5090003;28;20031;-16
2021/03/04 11:33:42;;;;;;;10.35;4.90;;;;;;;;;;5090144;28;20118;-17
2021/03/04 11:36:08;;;;;;;19.77;9.32;;;;;;;;;;5089962;28;20020;-17
2021/03/04 11:38:33;;;;;;;3.00;1.63;;;;;;;;;;5090061;28;20034;-17
2021/03/04 11:40:59;;;;;;;19.67;7.32;;;;;;;;;;5089871;28;20055;-16
2021/03/04 11:43:24;;;;;;;9.82;4.82;;;;;;;;;;5088695;28;20046;-16
2021/03/04 11:45:49;;;;;;;12.65;4.47;;;;;;;;;;5089172;28;20455;-16
2021/03/04 11:48:15;;;;;;;4.97;1.48;;;;;;;;;;5089318;28;20032;-16
2021/03/04 11:50:40;;;;;;;26.10;8.77;;;;;;;;;;5089306;28;20110;-16
2021/03/04 11:53:06;;;;;;;5.35;3.00;;;;;;;;;;5089135;28;20077;-16
2021/03/04 11:55:32;;;;;;;28.73;12.77;;;;;;;;;;5088417;28;20101;-16
2021/03/04 11:57:58;;;;;;;17.17;8.48;;;;;;;;;;5088939;28;20081;-16
2021/03/04 12:00:24;;;;;;;18.02;8.07;;;;;;;;;;5088889;28;20024;-16
2021/03/04 12:02:49;;;;;;;26.63;10.57;;;;;;;;;;5088990;28;20078;-16
2021/03/04 12:05:15;;;;;;;20.35;7.95;;;;;;;;;;5088786;28;20024;-16
2021/03/04 12:07:40;;;;;;;18.20;7.50;;;;;;;;;;5088747;28;20020;-16
2021/03/04 12:10:06;;;;;;;21.08;9.02;;;;;;;;;;5089145;28;20023;-15
2021/03/04 12:12:31;;;;;;;3.95;2.92;;;;;;;;;;5088784;28;20598;-17
2021/03/04 12:14:58;;;;;;;9.93;1.63;;;;;;;;;;5089156;28;20028;-26
2021/03/04 12:17:24;;;;;;;2.80;1.92;;;;;;;;;;5088943;28;20020;-15
2021/03/04 12:19:49;;;;;;;17.70;8.88;;;;;;;;;;5088891;28;20053;-15
2021/03/04 12:22:15;;;;;;;2.42;2.22;;;;;;;;;;5088973;28;20467;-15
2021/03/04 12:24:40;;;;;;;14.45;6.80;;;;;;;;;;5089611;28;20036;-16
2021/03/04 12:27:07;;;;;;;2.35;1.50;;;;;;;;;;5088138;28;20077;-16
2021/03/04 12:29:32;;;;;;;9.07;5.57;;;;;;;;;;5088879;28;20076;-16
2021/03/04 12:31:58;;;;;;;30.75;11.00;;;;;;;;;;5088569;28;20456;-17
2021/03/04 12:34:24;;;;;;;16.75;7.93;;;;;;;;;;5087851;28;20032;-15
2021/03/04 12:36:49;;;;;;;25.83;9.73;;;;;;;;;;5088985;28;20048;-15
2021/03/04 12:39:14;;;;;;;9.00;4.20;;;;;;;;;;5089069;28;20730;-14
2021/03/04 12:41:40;;;;;;;23.63;11.82;;;;;;;;;;5088991;28;20028;-15
2021/03/04 12:44:06;;;;;;;0.75;0.75;;;;;;;;;;5070765;28;20032;-16
2021/03/04 12:46:32;;;;;;;5.68;3.25;;;;;;;;;;5075176;28;20458;-15
2021/03/04 12:48:57;;;;;;;0.80;0.80;;;;;;;;;;5088209;28;20034;-15
2021/03/04 12:51:22;;;;;;;16.50;7.00;;;;;;;;;;5088501;28;20510;-15
2021/03/04 12:53:48;;;;;;;4.25;3.10;;;;;;;;;;5088748;28;20108;-15
2021/03/04 12:56:14;;;;;;;21.10;9.02;;;;;;;;;;5088388;28;20367;-16
2021/03/04 12:58:39;;;;;;;22.30;9.07;;;;;;;;;;5087617;28;20028;-16
2021/03/04 13:01:05;;;;;;;26.15;11.40;;;;;;;;;;5087690;28;20020;-16
2021/03/04 13:03:32;;;;;;;20.25;7.60;;;;;;;;;;5088451;28;20036;-16
2021/03/04 13:05:58;;;;;;;34.72;14.70;;;;;;;;;;5088775;28;20024;-16
2021/03/04 13:08:23;;;;;;;21.35;9.38;;;;;;;;;;5088533;28;20568;-16
2021/03/04 13:10:49;;;;;;;36.38;18.05;;;;;;;;;;5088618;28;20067;-15
2021/03/04 13:13:14;;;;;;;32.90;12.95;;;;;;;;;;5087062;28;20028;-15
2021/03/04 13:15:40;;;;;;;35.83;15.45;;;;;;;;;;5081765;28;20041;-17
2021/03/04 13:18:05;;;;;;;34.45;13.23;;;;;;;;;;5066989;28;20063;-16
2021/03/04 13:20:31;;;;;;;30.77;11.77;;;;;;;;;;5067653;28;20025;-16
2021/03/04 13:22:56;;;;;;;28.45;13.18;;;;;;;;;;5066632;28;20123;-16
2021/03/04 13:25:21;;;;;;;24.70;11.35;;;;;;;;;;5067167;28;20041;-16
2021/03/04 13:27:47;;;;;;;14.02;6.70;;;;;;;;;;5068489;28;20054;-16
2021/03/04 13:30:13;;;;;;;28.55;10.90;;;;;;;;;;5067988;28;20044;-16
2021/03/04 13:32:38;;;;;;;36.60;14.00;;;;;;;;;;5067675;28;20067;-16
2021/03/04 13:35:04;;;;;;;35.78;14.68;;;;;;;;;;5066720;28;20063;-16
2021/03/04 13:37:30;;;;;;;30.77;11.10;;;;;;;;;;5068187;28;20100;-16
2021/03/04 13:39:55;;;;;;;34.63;13.30;;;;;;;;;;5071482;28;20387;-14
2021/03/04 13:42:21;;;;;;;30.88;12.93;;;;;;;;;;5069102;28;20414;-15
2021/03/04 13:44:46;;;;;;;46.95;18.65;;;;;;;;;;5071546;28;20048;-15
2021/03/04 13:47:12;;;;;;;52.33;21.88;;;;;;;;;;5084246;28;20043;-15
2021/03/04 13:49:37;;;;;;;48.15;19.88;;;;;;;;;;5090152;28;20074;-15
2021/03/04 13:52:03;;;;;;;29.27;12.35;;;;;;;;;;5089788;28;20012;-15
2021/03/04 13:54:29;;;;;;;41.13;15.27;;;;;;;;;;5091185;28;20035;-15
2021/03/04 13:56:54;;;;;;;30.25;11.02;;;;;;;;;;5091076;28;20103;-16
2021/03/04 13:59:19;;;;;;;29.85;9.82;;;;;;;;;;5090022;28;20103;-15
2021/03/04 14:01:45;;;;;;;36.83;14.07;;;;;;;;;;5089489;28;20527;-15
2021/03/04 14:04:10;;;;;;;43.75;16.60;;;;;;;;;;5090519;28;20044;-15
2021/03/04 14:06:36;;;;;;;32.75;13.35;;;;;;;;;;5091676;28;20016;-15
2021/03/04 14:09:02;;;;;;;31.33;11.25;;;;;;;;;;5091206;28;20047;-14
2021/03/04 14:11:28;;;;;;;5.25;2.83;;;;;;;;;;5090375;28;20098;-16
2021/03/04 14:13:53;;;;;;;22.52;10.25;;;;;;;;;;5091536;28;20131;-17
2021/03/04 14:16:18;;;;;;;27.90;12.05;;;;;;;;;;5091587;28;20016;-16
2021/03/04 14:18:44;;;;;;;23.40;10.85;;;;;;;;;;5090140;28;20474;-16
2021/03/04 14:21:09;;;;;;;35.10;17.80;;;;;;;;;;5089259;28;20803;-16
2021/03/04 14:23:35;;;;;;;43.00;18.88;;;;;;;;;;5091048;28;20058;-15